Time;durP1;ratioP1;P1;durP2;ratioP2;P2;SDS_P1;SDS_P2;PMS_P1;PMS_P2;Temp;Humidity;BMP_temperature;BMP_pressure;BME280_temperature;BME280_humidity;BME280_pressure;Samples;Min_cycle;Max_cycle;Signal;HPM_P1;HPM_P2
2021/10/21 00:01:57;;;;;;;16.35;11.60;;;13.70;99.90;;;;;;5048003;28;20393;-72
2021/10/21 00:04:24;;;;;;;14.38;11.25;;;13.70;99.90;;;;;;5051336;28;20033;-71
2021/10/21 00:06:50;;;;;;;15.65;11.07;;;13.70;99.90;;;;;;5050226;28;20067;-73
2021/10/21 00:09:15;;;;;;;17.08;11.95;;;13.70;99.90;;;;;;5051224;28;20021;-74
2021/10/21 00:11:42;;;;;;;15.68;11.45;;;13.70;99.90;;;;;;5050761;28;20117;-73
2021/10/21 00:14:07;;;;;;;16.65;10.70;;;13.80;99.90;;;;;;5051759;28;20131;-73
2021/10/21 00:16:33;;;;;;;17.23;10.45;;;13.70;99.90;;;;;;5052049;28;20041;-72
2021/10/21 00:18:59;;;;;;;12.07;10.30;;;13.80;99.90;;;;;;5051444;28;20029;-72
2021/10/21 00:21:24;;;;;;;14.18;10.10;;;13.70;99.90;;;;;;5051581;28;20029;-69
2021/10/21 00:23:50;;;;;;;12.30;9.95;;;13.70;99.90;;;;;;5051210;28;20033;-72
2021/10/21 00:26:16;;;;;;;13.80;10.07;;;13.70;99.90;;;;;;5052188;28;20069;-73
2021/10/21 00:28:41;;;;;;;11.73;9.40;;;13.70;99.90;;;;;;5051606;28;20032;-72
2021/10/21 00:31:07;;;;;;;11.07;9.25;;;13.70;99.90;;;;;;5050704;28;20082;-72
2021/10/21 00:33:33;;;;;;;10.57;8.98;;;13.70;99.90;;;;;;5051898;28;20021;-71
2021/10/21 00:35:59;;;;;;;9.50;8.15;;;13.70;99.90;;;;;;5029928;28;20025;-73
2021/10/21 00:38:25;;;;;;;10.38;8.60;;;13.70;99.90;;;;;;5037670;28;20386;-72
2021/10/21 00:40:51;;;;;;;10.60;8.50;;;13.70;99.90;;;;;;5050952;28;20494;-72
2021/10/21 00:43:17;;;;;;;10.13;8.27;;;13.70;99.90;;;;;;5051332;28;20132;-71
2021/10/21 00:45:42;;;;;;;9.75;8.52;;;13.70;99.90;;;;;;5051320;28;20054;-72
2021/10/21 00:48:09;;;;;;;13.63;9.02;;;13.70;99.90;;;;;;5050162;28;20154;-72
2021/10/21 00:50:36;;;;;;;13.48;9.63;;;13.70;99.90;;;;;;5050815;28;20478;-72
2021/10/21 00:53:02;;;;;;;11.30;9.27;;;13.80;99.90;;;;;;5049984;28;20025;-72
2021/10/21 00:55:28;;;;;;;17.92;10.02;;;13.70;99.90;;;;;;5050166;28;20043;-72
2021/10/21 00:57:55;;;;;;;11.60;9.45;;;13.70;99.90;;;;;;5049533;28;20025;-73
2021/10/21 01:00:20;;;;;;;12.63;9.80;;;13.70;99.90;;;;;;5050788;28;20056;-73
2021/10/21 01:02:46;;;;;;;11.25;9.07;;;13.70;99.90;;;;;;5050442;28;20059;-70
2021/10/21 01:05:13;;;;;;;13.52;9.57;;;13.80;99.90;;;;;;5049497;28;20079;-73
2021/10/21 01:07:39;;;;;;;13.38;9.10;;;13.80;99.90;;;;;;5049875;28;20033;-73
2021/10/21 01:10:09;;;;;;;12.32;8.95;;;13.80;99.90;;;;;;5049418;28;20098;-73
2021/10/21 01:12:36;;;;;;;10.63;8.73;;;13.80;99.90;;;;;;5048020;28;20087;-73
2021/10/21 01:15:15;;;;;;;11.60;9.15;;;13.80;99.90;;;;;;5049434;28;20028;-74
2021/10/21 01:17:41;;;;;;;11.68;8.80;;;13.80;99.90;;;;;;5048496;28;20023;-74
2021/10/21 01:20:08;;;;;;;10.43;9.13;;;13.80;99.90;;;;;;5049491;28;20568;-73
2021/10/21 01:22:34;;;;;;;12.18;9.00;;;13.80;99.90;;;;;;5047462;28;20036;-71
2021/10/21 01:25:00;;;;;;;12.02;8.57;;;13.80;99.90;;;;;;5049518;28;20036;-73
2021/10/21 01:27:25;;;;;;;12.43;9.35;;;13.80;99.90;;;;;;5049469;28;20037;-72
2021/10/21 01:29:51;;;;;;;13.80;9.00;;;13.80;99.90;;;;;;5051707;28;20029;-73
2021/10/21 01:32:24;;;;;;;14.57;9.30;;;13.80;99.90;;;;;;5050117;28;20493;-73
2021/10/21 01:34:49;;;;;;;15.98;10.73;;;13.80;99.90;;;;;;5048907;28;20139;-73
2021/10/21 01:37:15;;;;;;;11.27;9.73;;;13.70;99.90;;;;;;5049665;28;20059;-73
2021/10/21 01:39:41;;;;;;;10.38;9.07;;;13.70;99.90;;;;;;5049854;28;20028;-73
2021/10/21 01:42:07;;;;;;;12.80;9.88;;;13.70;99.90;;;;;;5049015;28;20155;-74
2021/10/21 01:44:33;;;;;;;14.82;11.18;;;13.70;99.90;;;;;;5049807;28;20531;-73
2021/10/21 01:46:58;;;;;;;13.48;9.40;;;13.60;99.90;;;;;;5049455;28;20116;-73
2021/10/21 01:49:24;;;;;;;12.23;10.18;;;13.60;99.90;;;;;;5051391;28;20025;-74
2021/10/21 01:51:50;;;;;;;11.55;9.40;;;13.60;99.90;;;;;;5050452;28;20170;-73
2021/10/21 01:54:17;;;;;;;10.73;9.15;;;13.50;99.90;;;;;;5051188;28;20112;-73
2021/10/21 01:56:42;;;;;;;12.52;10.52;;;13.50;99.90;;;;;;5051055;28;20028;-73
2021/10/21 01:59:08;;;;;;;15.40;9.73;;;13.50;99.90;;;;;;5049845;28;20029;-73
2021/10/21 02:01:33;;;;;;;12.05;9.32;;;13.40;99.90;;;;;;5050843;28;20155;-73
2021/10/21 02:04:00;;;;;;;14.38;9.50;;;13.40;99.90;;;;;;5050407;28;20033;-73
2021/10/21 02:06:26;;;;;;;13.27;9.82;;;13.40;99.90;;;;;;5050828;28;20585;-74
2021/10/21 02:08:52;;;;;;;11.32;9.20;;;13.50;99.90;;;;;;5050249;28;20116;-73
2021/10/21 02:11:17;;;;;;;11.35;9.07;;;13.50;99.90;;;;;;5049624;28;20493;-73
2021/10/21 02:13:43;;;;;;;11.65;9.15;;;13.50;99.90;;;;;;5050443;28;20402;-74
2021/10/21 02:16:09;;;;;;;12.10;8.57;;;13.40;99.90;;;;;;5051891;28;20147;-73
2021/10/21 02:18:35;;;;;;;12.77;8.35;;;13.50;99.90;;;;;;5054508;28;20565;-72
2021/10/21 02:21:01;;;;;;;9.38;8.13;;;13.50;99.90;;;;;;5053543;28;20041;-74
2021/10/21 02:23:26;;;;;;;8.50;7.05;;;13.50;99.90;;;;;;5054024;28;20474;-73
2021/10/21 02:25:52;;;;;;;10.57;7.55;;;13.50;99.90;;;;;;5053524;28;20044;-73
2021/10/21 02:28:18;;;;;;;7.10;6.40;;;13.60;99.90;;;;;;5053927;28;20017;-74
2021/10/21 02:30:44;;;;;;;8.85;6.20;;;13.60;99.90;;;;;;5053838;28;20484;-72
2021/10/21 02:33:09;;;;;;;7.90;6.10;;;13.60;99.90;;;;;;5053525;28;20028;-74
2021/10/21 02:35:35;;;;;;;6.32;5.72;;;13.70;99.90;;;;;;5053890;28;20029;-73
2021/10/21 02:38:01;;;;;;;7.18;5.65;;;13.70;99.90;;;;;;5053300;28;20033;-73
2021/10/21 02:40:26;;;;;;;6.22;5.10;;;13.70;99.90;;;;;;5053987;28;20017;-74
2021/10/21 02:42:52;;;;;;;5.30;4.65;;;13.80;99.90;;;;;;5052750;28;20130;-73
2021/10/21 02:45:18;;;;;;;5.07;4.57;;;13.80;99.90;;;;;;5053542;28;20485;-74
2021/10/21 02:47:44;;;;;;;5.38;4.13;;;13.90;99.90;;;;;;5053931;28;20021;-73
2021/10/21 02:50:10;;;;;;;6.38;4.20;;;14.00;99.90;;;;;;5053358;28;20853;-73
2021/10/21 02:52:36;;;;;;;4.95;3.50;;;14.10;99.90;;;;;;5053765;28;20508;-73
2021/10/21 02:55:03;;;;;;;5.63;4.30;;;14.20;99.90;;;;;;5052909;28;20056;-73
2021/10/21 02:57:29;;;;;;;4.93;3.53;;;14.30;99.90;;;;;;5050145;28;20029;-73
2021/10/21 02:59:55;;;;;;;5.68;4.30;;;14.30;99.90;;;;;;5052383;28;20036;-73
2021/10/21 03:02:21;;;;;;;4.47;4.07;;;14.30;99.90;;;;;;5053565;28;20037;-73
2021/10/21 03:04:46;;;;;;;5.43;4.57;;;14.40;99.90;;;;;;5053098;28;20104;-70
2021/10/21 03:07:12;;;;;;;6.25;4.45;;;14.40;99.90;;;;;;5053092;28;20037;-72
2021/10/21 03:09:37;;;;;;;4.57;3.20;;;14.40;99.90;;;;;;5052286;28;20052;-72
2021/10/21 03:12:03;;;;;;;4.05;3.20;;;14.50;99.90;;;;;;5052689;28;20025;-73
2021/10/21 03:14:29;;;;;;;4.28;3.30;;;14.60;99.90;;;;;;5052277;28;20143;-72
2021/10/21 03:16:55;;;;;;;3.58;3.13;;;14.70;99.90;;;;;;5052351;28;20040;-72
2021/10/21 03:19:20;;;;;;;4.00;3.60;;;14.70;99.90;;;;;;5053369;28;20028;-73
2021/10/21 03:21:46;;;;;;;7.57;3.70;;;14.60;99.90;;;;;;5053061;28;20032;-71
2021/10/21 03:24:12;;;;;;;5.07;3.35;;;14.60;99.90;;;;;;5052808;28;20033;-72
2021/10/21 03:26:37;;;;;;;4.53;3.42;;;14.70;99.90;;;;;;5053162;28;20041;-73
2021/10/21 03:29:03;;;;;;;3.10;2.80;;;14.70;99.90;;;;;;5052027;28;20479;-72
2021/10/21 03:31:29;;;;;;;3.92;2.83;;;14.80;99.90;;;;;;5052652;28;20033;-73
2021/10/21 03:33:56;;;;;;;3.38;2.30;;;14.70;99.90;;;;;;5052411;28;20106;-73
2021/10/21 03:36:22;;;;;;;3.22;2.60;;;14.70;99.90;;;;;;5052897;28;20028;-74
2021/10/21 03:38:48;;;;;;;4.18;2.30;;;14.60;99.90;;;;;;5052929;28;20021;-70
2021/10/21 03:41:13;;;;;;;3.72;2.00;;;14.50;99.90;;;;;;5055574;28;20025;-73
2021/10/21 03:43:39;;;;;;;3.00;1.48;;;14.50;99.90;;;;;;5062460;28;20481;-73
2021/10/21 03:46:04;;;;;;;2.42;1.55;;;14.50;99.90;;;;;;5051980;28;20041;-72
2021/10/21 03:48:30;;;;;;;1.40;1.30;;;14.50;99.90;;;;;;5053500;28;20112;-73
2021/10/21 03:50:56;;;;;;;1.70;1.30;;;14.50;99.90;;;;;;5037975;28;20030;-73
2021/10/21 03:53:21;;;;;;;1.98;1.35;;;14.40;99.90;;;;;;5032966;28;20064;-72
2021/10/21 03:55:47;;;;;;;2.08;1.02;;;14.50;99.90;;;;;;5043990;28;20382;-72
2021/10/21 03:58:13;;;;;;;3.08;0.90;;;14.50;99.90;;;;;;5051478;28;20052;-73
2021/10/21 04:00:38;;;;;;;2.75;1.30;;;14.60;99.90;;;;;;5052091;28;20371;-72
2021/10/21 04:03:04;;;;;;;2.10;1.20;;;14.60;99.90;;;;;;5051489;28;20029;-72
2021/10/21 04:05:29;;;;;;;4.35;0.88;;;14.70;99.90;;;;;;5052240;28;20470;-72
2021/10/21 04:07:55;;;;;;;1.75;0.80;;;14.70;99.90;;;;;;5051347;28;20494;-72
2021/10/21 04:10:21;;;;;;;2.60;1.10;;;14.70;99.90;;;;;;5052442;28;20057;-72
2021/10/21 04:12:47;;;;;;;1.38;0.90;;;14.70;99.90;;;;;;5052261;28;20033;-72
2021/10/21 04:15:12;;;;;;;1.15;0.70;;;14.70;99.90;;;;;;5051106;28;20439;-72
2021/10/21 04:17:39;;;;;;;4.65;0.93;;;14.80;99.90;;;;;;5051251;28;20029;-72
2021/10/21 04:20:06;;;;;;;3.03;0.80;;;14.80;99.90;;;;;;5050011;28;20029;-72
2021/10/21 04:22:32;;;;;;;4.95;0.75;;;14.80;99.90;;;;;;5050781;28;20021;-72
2021/10/21 04:24:58;;;;;;;1.05;0.63;;;14.80;99.90;;;;;;5048740;28;20120;-72
2021/10/21 04:27:24;;;;;;;4.50;0.93;;;14.80;99.90;;;;;;5050374;28;20040;-72
2021/10/21 04:29:49;;;;;;;2.05;0.80;;;14.70;99.90;;;;;;5049729;28;20776;-69
2021/10/21 04:32:15;;;;;;;2.42;0.70;;;14.70;99.90;;;;;;5049530;28;20017;-72
2021/10/21 04:34:41;;;;;;;1.90;0.80;;;14.70;99.90;;;;;;5050325;28;20382;-71
2021/10/21 04:37:06;;;;;;;2.22;0.77;;;14.60;99.90;;;;;;5049663;28;20032;-72
2021/10/21 04:39:32;;;;;;;5.80;0.95;;;14.60;99.90;;;;;;5049383;28;20466;-70
2021/10/21 04:41:58;;;;;;;4.57;0.90;;;14.60;99.90;;;;;;5049130;28;20124;-71
2021/10/21 04:44:24;;;;;;;2.67;0.50;;;14.60;99.90;;;;;;5049760;28;20507;-70
2021/10/21 04:46:49;;;;;;;1.85;0.50;;;14.50;99.90;;;;;;5049719;28;20137;-69
2021/10/21 04:49:16;;;;;;;0.85;0.50;;;14.50;99.90;;;;;;5049658;28;20489;-72
2021/10/21 04:51:42;;;;;;;3.92;0.70;;;14.50;99.90;;;;;;5050268;28;20527;-71
2021/10/21 04:54:08;;;;;;;7.75;0.68;;;14.50;99.90;;;;;;5048855;28;20029;-71
2021/10/21 04:56:33;;;;;;;4.60;0.60;;;14.40;99.90;;;;;;5049182;28;20036;-71
2021/10/21 04:58:59;;;;;;;3.72;0.80;;;14.30;99.90;;;;;;5044545;28;20025;-70
2021/10/21 05:01:25;;;;;;;1.63;0.55;;;14.20;99.90;;;;;;5050097;28;20047;-70
2021/10/21 05:03:54;;;;;;;3.22;0.60;;;14.20;99.90;;;;;;5049784;28;20029;-69
2021/10/21 05:06:20;;;;;;;2.15;0.70;;;14.10;99.90;;;;;;5049753;28;20037;-71
2021/10/21 05:08:45;;;;;;;3.75;0.75;;;14.10;99.90;;;;;;5051314;28;20024;-72
2021/10/21 05:11:11;;;;;;;3.60;0.80;;;14.10;99.90;;;;;;5050476;28;20100;-72
2021/10/21 05:13:37;;;;;;;5.95;0.70;;;14.00;98.90;;;;;;5051327;28;20025;-71
2021/10/21 05:16:02;;;;;;;4.35;0.75;;;14.00;98.90;;;;;;5035725;28;20503;-72
2021/10/21 05:18:28;;;;;;;5.05;1.00;;;13.90;99.10;;;;;;5060391;28;20044;-72
2021/10/21 05:20:54;;;;;;;12.77;0.90;;;13.90;99.30;;;;;;5050616;28;20040;-69
2021/10/21 05:23:19;;;;;;;6.70;1.00;;;13.80;98.60;;;;;;5051445;28;20413;-71
2021/10/21 05:25:46;;;;;;;2.22;0.93;;;13.80;98.50;;;;;;5050172;28;20056;-72
2021/10/21 05:28:13;;;;;;;8.85;0.77;;;13.70;98.40;;;;;;5050575;28;20021;-71
2021/10/21 05:30:39;;;;;;;8.82;1.55;;;13.80;97.30;;;;;;5050131;28;20111;-72
2021/10/21 05:33:05;;;;;;;6.45;1.02;;;13.80;96.70;;;;;;5050129;28;20040;-72
2021/10/21 05:35:30;;;;;;;5.75;1.20;;;13.70;96.40;;;;;;5048221;28;20440;-71
2021/10/21 05:37:56;;;;;;;2.88;0.60;;;13.70;96.00;;;;;;5050514;28;20047;-70
2021/10/21 05:40:22;;;;;;;7.03;0.90;;;13.60;96.40;;;;;;5050570;28;20028;-71
2021/10/21 05:42:48;;;;;;;5.75;2.03;;;13.60;96.30;;;;;;5050526;28;20049;-70
2021/10/21 05:45:14;;;;;;;3.72;0.90;;;13.60;95.90;;;;;;5048921;28;20246;-71
2021/10/21 05:47:42;;;;;;;4.68;1.38;;;13.60;96.30;;;;;;5050114;28;20410;-70
2021/10/21 05:50:09;;;;;;;6.28;0.73;;;13.50;96.80;;;;;;5049021;28;20108;-71
2021/10/21 05:52:35;;;;;;;9.55;0.90;;;13.50;97.10;;;;;;5054740;28;20025;-80
2021/10/21 05:55:01;;;;;;;7.40;1.13;;;13.40;97.20;;;;;;5053515;28;20028;-80
2021/10/21 05:57:27;;;;;;;3.97;0.95;;;13.40;97.40;;;;;;5054182;28;20028;-71
2021/10/21 05:59:53;;;;;;;7.88;1.20;;;13.40;97.60;;;;;;5054090;28;20478;-70
2021/10/21 06:02:18;;;;;;;6.72;0.93;;;13.40;96.70;;;;;;5041689;28;20029;-71
2021/10/21 06:04:44;;;;;;;5.75;0.93;;;13.40;97.10;;;;;;5055875;28;20454;-70
2021/10/21 06:07:09;;;;;;;6.50;1.02;;;13.40;97.30;;;;;;5054253;28;20063;-71
2021/10/21 06:09:35;;;;;;;5.00;1.20;;;13.40;97.00;;;;;;5051909;28;20393;-71
2021/10/21 06:12:01;;;;;;;8.80;0.98;;;13.30;96.70;;;;;;5052960;28;20029;-69
2021/10/21 06:14:31;;;;;;;13.55;1.98;;;13.40;96.80;;;;;;5054341;28;20039;-70
2021/10/21 06:16:56;;;;;;;9.88;1.55;;;13.40;95.60;;;;;;5053451;28;20390;-70
2021/10/21 06:19:22;;;;;;;7.25;1.00;;;13.40;95.90;;;;;;5053825;28;20029;-71
2021/10/21 06:21:48;;;;;;;6.65;1.08;;;13.40;96.20;;;;;;5041799;28;20461;-71
2021/10/21 06:24:17;;;;;;;11.50;1.30;;;13.40;96.10;;;;;;5053572;28;20020;-71
2021/10/21 06:26:42;;;;;;;11.30;2.35;;;13.30;96.20;;;;;;5053650;28;20033;-71
2021/10/21 06:29:08;;;;;;;9.82;1.60;;;13.30;95.30;;;;;;5053523;28;20025;-71
2021/10/21 06:31:33;;;;;;;9.13;0.98;;;13.30;95.40;;;;;;5054622;28;20062;-71
2021/10/21 06:33:59;;;;;;;7.68;1.20;;;13.30;95.40;;;;;;5053074;28;20540;-70
2021/10/21 06:36:25;;;;;;;5.78;1.00;;;13.30;95.40;;;;;;5053618;28;20050;-71
2021/10/21 06:38:51;;;;;;;8.80;1.17;;;13.30;94.70;;;;;;5054122;28;20029;-71
2021/10/21 06:41:17;;;;;;;9.05;1.05;;;13.40;93.90;;;;;;5052843;28;20413;-71
2021/10/21 06:43:43;;;;;;;10.75;1.38;;;13.40;93.90;;;;;;5052950;28;20494;-71
2021/10/21 06:46:09;;;;;;;7.80;0.85;;;13.40;93.70;;;;;;5052530;28;20489;-70
2021/10/21 06:48:34;;;;;;;7.65;1.60;;;13.40;94.10;;;;;;5054249;28;20101;-71
2021/10/21 06:51:01;;;;;;;9.32;1.30;;;13.30;93.60;;;;;;5052544;28;20036;-70
2021/10/21 06:53:27;;;;;;;7.47;1.25;;;13.30;93.50;;;;;;5053545;28;20082;-72
2021/10/21 06:55:52;;;;;;;6.88;1.30;;;13.40;93.10;;;;;;5053436;28;20488;-71
2021/10/21 06:58:18;;;;;;;8.00;1.20;;;13.40;92.90;;;;;;5052883;28;20064;-70
2021/10/21 07:00:44;;;;;;;7.53;1.27;;;13.40;92.60;;;;;;5051271;28;20053;-71
2021/10/21 07:03:10;;;;;;;6.72;0.95;;;13.50;92.40;;;;;;5051937;28;20100;-70
2021/10/21 07:05:41;;;;;;;7.60;0.80;;;13.50;92.30;;;;;;5052847;28;20086;-70
2021/10/21 07:08:08;;;;;;;10.18;1.98;;;13.60;91.80;;;;;;5052871;28;20114;-70
2021/10/21 07:10:34;;;;;;;6.82;0.93;;;13.70;91.40;;;;;;5052662;28;20029;-72
2021/10/21 07:13:04;;;;;;;7.07;1.48;;;13.80;91.60;;;;;;5052309;28;20132;-70
2021/10/21 07:15:33;;;;;;;6.03;1.10;;;13.90;91.10;;;;;;5053132;28;20029;-70
2021/10/21 07:18:00;;;;;;;4.60;0.98;;;13.90;90.50;;;;;;5052563;28;20162;-69
2021/10/21 07:20:25;;;;;;;7.40;1.30;;;13.90;90.40;;;;;;5052649;28;20039;-70
2021/10/21 07:22:51;;;;;;;9.18;1.10;;;13.90;90.40;;;;;;5052454;28;20370;-70
2021/10/21 07:25:18;;;;;;;7.38;1.13;;;13.90;90.50;;;;;;5052318;28;20062;-70
2021/10/21 07:27:43;;;;;;;4.93;1.10;;;14.00;90.20;;;;;;5055619;28;20028;-70
2021/10/21 07:30:10;;;;;;;5.18;1.30;;;14.00;89.90;;;;;;5062208;28;20417;-70
2021/10/21 07:32:37;;;;;;;5.80;0.90;;;14.10;90.00;;;;;;5071659;28;20024;-70
2021/10/21 07:35:04;;;;;;;8.18;1.17;;;14.20;90.30;;;;;;5072070;28;20461;-69
2021/10/21 07:37:29;;;;;;;8.07;1.25;;;14.30;88.40;;;;;;5072971;28;20036;-70
2021/10/21 07:39:55;;;;;;;8.98;1.48;;;14.40;88.90;;;;;;5072581;28;20074;-68
2021/10/21 07:42:21;;;;;;;3.88;1.10;;;14.40;88.20;;;;;;5072135;28;20032;-70
2021/10/21 07:44:48;;;;;;;6.07;0.98;;;14.60;88.10;;;;;;5073138;28;20481;-70
2021/10/21 07:47:14;;;;;;;5.10;1.10;;;14.70;87.40;;;;;;5071790;28;20404;-70
2021/10/21 07:49:42;;;;;;;4.63;0.65;;;14.70;87.20;;;;;;5064851;28;20076;-70
2021/10/21 07:52:08;;;;;;;2.80;0.65;;;14.80;86.80;;;;;;5051317;28;20373;-70
2021/10/21 07:54:33;;;;;;;5.45;1.10;;;14.80;85.30;;;;;;5052441;28;20022;-70
2021/10/21 07:57:00;;;;;;;5.40;0.82;;;14.70;84.90;;;;;;5052015;28;20386;-69
2021/10/21 07:59:32;;;;;;;2.90;1.00;;;14.70;84.40;;;;;;5052409;28;20024;-70
2021/10/21 08:01:58;;;;;;;4.60;0.40;;;14.70;84.30;;;;;;5065643;28;20083;-68
2021/10/21 08:04:28;;;;;;;6.47;0.70;;;14.70;84.50;;;;;;5062949;28;20378;-70
2021/10/21 08:06:56;;;;;;;9.45;1.23;;;14.70;83.90;;;;;;5041879;28;20041;-71
2021/10/21 08:09:22;;;;;;;2.88;0.65;;;14.70;83.70;;;;;;5052010;28;20033;-70
2021/10/21 08:11:50;;;;;;;4.50;0.65;;;14.70;83.60;;;;;;5052201;28;20546;-71
2021/10/21 08:14:16;;;;;;;5.05;0.35;;;14.70;83.50;;;;;;5050573;28;20112;-70
2021/10/21 08:16:43;;;;;;;5.80;1.10;;;14.70;82.60;;;;;;5050240;28;20485;-70
2021/10/21 08:19:09;;;;;;;7.95;1.10;;;14.70;82.00;;;;;;5051715;28;20481;-69
2021/10/21 08:21:35;;;;;;;2.00;0.57;;;14.70;81.00;;;;;;5051523;28;20044;-70
2021/10/21 08:24:05;;;;;;;3.95;0.50;;;14.70;82.30;;;;;;5050186;28;20485;-69
2021/10/21 08:26:31;;;;;;;2.85;0.40;;;14.70;81.60;;;;;;5051624;28;20041;-70
2021/10/21 08:28:57;;;;;;;10.20;0.40;;;14.70;80.40;;;;;;5050721;28;20119;-68
2021/10/21 08:31:23;;;;;;;5.63;0.50;;;14.80;80.40;;;;;;5059831;28;20043;-70
2021/10/21 08:33:49;;;;;;;7.55;0.60;;;14.80;80.60;;;;;;5069468;28;20100;-70
2021/10/21 08:36:21;;;;;;;3.70;0.50;;;14.80;80.20;;;;;;5050631;28;20104;-69
2021/10/21 08:38:51;;;;;;;4.47;0.70;;;14.80;79.60;;;;;;5051850;28;20107;-70
2021/10/21 08:41:18;;;;;;;2.72;0.38;;;14.90;79.90;;;;;;5050644;28;20115;-70
2021/10/21 08:43:45;;;;;;;2.95;0.45;;;14.90;80.00;;;;;;5051190;28;20383;-70
2021/10/21 08:46:14;;;;;;;1.88;0.38;;;14.80;80.40;;;;;;5049525;28;20118;-69
2021/10/21 08:48:41;;;;;;;4.75;0.35;;;14.80;80.10;;;;;;5050833;28;20037;-70
2021/10/21 08:51:09;;;;;;;4.93;0.50;;;14.70;80.40;;;;;;5050436;28;20449;-70
2021/10/21 08:53:36;;;;;;;1.83;0.50;;;14.60;81.30;;;;;;5050983;28;20033;-69
2021/10/21 08:56:02;;;;;;;3.30;0.73;;;14.70;82.00;;;;;;5050700;28;20541;-71
2021/10/21 08:58:28;;;;;;;4.03;0.40;;;14.70;83.40;;;;;;5051445;28;20071;-70
2021/10/21 09:01:14;;;;;;;4.82;0.95;;;14.60;84.80;;;;;;5055808;28;20394;-70
2021/10/21 09:06:48;;;;;;;4.68;0.20;;;14.10;86.10;;;;;;5050201;28;20665;-70
2021/10/21 09:09:29;;;;;;;4.68;0.20;;;14.00;87.10;;;;;;5050281;28;20033;-69
2021/10/21 09:12:17;;;;;;;1.60;0.30;;;13.80;89.00;;;;;;5051367;28;20033;-70
2021/10/21 09:14:47;;;;;;;4.88;0.30;;;13.70;90.00;;;;;;5047877;28;20425;-70
2021/10/21 09:17:15;;;;;;;0.82;0.10;;;13.50;90.00;;;;;;5050351;28;20489;-70
2021/10/21 09:19:42;;;;;;;1.85;0.35;;;13.50;90.20;;;;;;5051774;28;20017;-70
2021/10/21 09:22:23;;;;;;;2.42;0.20;;;13.50;90.30;;;;;;5051012;28;20117;-70
2021/10/21 09:24:50;;;;;;;2.33;0.25;;;13.50;90.00;;;;;;5051623;28;20036;-69
2021/10/21 09:27:19;;;;;;;2.08;0.30;;;13.50;90.20;;;;;;5054954;28;20102;-70
2021/10/21 09:29:46;;;;;;;3.13;0.38;;;13.60;90.00;;;;;;5055853;28;20028;-69
2021/10/21 09:32:21;;;;;;;1.55;0.40;;;13.60;90.00;;;;;;5070449;28;20145;-69
2021/10/21 09:34:58;;;;;;;1.02;0.15;;;13.70;90.10;;;;;;5075556;28;20052;-70
2021/10/21 09:37:34;;;;;;;0.85;0.17;;;13.80;90.30;;;;;;5074930;28;20474;-70
2021/10/21 09:40:03;;;;;;;0.47;0.22;;;13.80;90.20;;;;;;5074846;28;20036;-68
2021/10/21 09:42:33;;;;;;;2.75;0.25;;;13.80;90.20;;;;;;5075177;28;20515;-71
2021/10/21 09:45:20;;;;;;;1.83;0.30;;;13.90;90.60;;;;;;5071615;28;20021;-68
2021/10/21 09:47:51;;;;;;;1.50;0.20;;;14.00;90.60;;;;;;5055059;28;20041;-70
2021/10/21 09:50:28;;;;;;;2.22;0.13;;;14.00;90.20;;;;;;5054422;28;20036;-70
2021/10/21 09:53:22;;;;;;;1.88;0.10;;;14.10;90.10;;;;;;5055321;28;20017;-69
2021/10/21 09:55:55;;;;;;;0.60;0.10;;;14.20;89.00;;;;;;5055036;28;20064;-70
2021/10/21 09:58:25;;;;;;;2.60;0.13;;;14.10;87.20;;;;;;5054005;28;20048;-70
2021/10/21 10:01:03;;;;;;;2.08;0.20;;;14.00;84.50;;;;;;5059376;28;20033;-70
2021/10/21 10:03:32;;;;;;;1.20;0.20;;;13.90;83.60;;;;;;5075443;28;20036;-69
2021/10/21 10:05:58;;;;;;;1.23;0.30;;;13.70;81.50;;;;;;5061067;28;20436;-70
2021/10/21 10:08:25;;;;;;;4.78;0.40;;;13.70;80.50;;;;;;5053906;28;20033;-70
2021/10/21 10:10:56;;;;;;;1.70;0.22;;;13.60;80.70;;;;;;5054602;28;20091;-70
2021/10/21 10:13:22;;;;;;;1.80;0.17;;;13.50;81.00;;;;;;5053559;28;20068;-70
2021/10/21 10:15:50;;;;;;;3.78;0.47;;;13.60;81.50;;;;;;5054173;28;20040;-69
2021/10/21 10:18:22;;;;;;;2.65;0.50;;;13.60;81.90;;;;;;5053428;28;20450;-70
2021/10/21 10:21:00;;;;;;;2.58;0.28;;;13.80;79.40;;;;;;5054438;28;20033;-70
2021/10/21 10:23:27;;;;;;;5.32;0.60;;;13.70;76.70;;;;;;5054009;28;20021;-70
2021/10/21 10:25:53;;;;;;;0.32;0.20;;;13.60;77.30;;;;;;5054048;28;20044;-70
2021/10/21 10:28:19;;;;;;;4.32;0.35;;;13.60;76.50;;;;;;5053193;28;20060;-69
2021/10/21 10:30:56;;;;;;;2.28;0.30;;;13.60;76.30;;;;;;5057791;28;20044;-68
2021/10/21 10:33:42;;;;;;;4.95;0.40;;;13.60;76.80;;;;;;5056805;28;20086;-69
2021/10/21 10:36:28;;;;;;;3.40;0.40;;;13.60;76.60;;;;;;5052993;28;20397;-69
2021/10/21 10:39:09;;;;;;;3.10;0.38;;;13.70;76.20;;;;;;5054489;28;20025;-71
2021/10/21 10:41:41;;;;;;;2.97;0.30;;;13.80;76.50;;;;;;5053965;28;20466;-70
2021/10/21 10:44:10;;;;;;;1.77;0.35;;;13.90;75.40;;;;;;5053125;28;20080;-69
2021/10/21 10:46:51;;;;;;;2.97;0.53;;;13.90;76.00;;;;;;5053844;28;20045;-70
2021/10/21 10:49:39;;;;;;;1.02;0.47;;;14.00;75.90;;;;;;5053277;28;20033;-70
2021/10/21 10:52:11;;;;;;;3.38;0.50;;;14.10;76.50;;;;;;5046666;28;20029;-68
2021/10/21 10:54:39;;;;;;;1.60;0.40;;;14.30;76.80;;;;;;5053714;28;20115;-70
2021/10/21 10:57:07;;;;;;;2.45;0.30;;;14.40;76.80;;;;;;5053272;28;20033;-80
2021/10/21 10:59:33;;;;;;;1.67;0.45;;;14.40;76.90;;;;;;5053757;28;20029;-70
2021/10/21 11:02:01;;;;;;;1.92;0.40;;;14.50;76.50;;;;;;5061775;28;20029;-70
2021/10/21 11:04:52;;;;;;;5.10;0.40;;;14.60;75.50;;;;;;5052936;28;20079;-70
2021/10/21 11:07:23;;;;;;;4.63;0.50;;;14.60;76.30;;;;;;5052894;28;20064;-70
2021/10/21 11:09:50;;;;;;;0.90;0.35;;;14.60;76.50;;;;;;5053805;28;20385;-70
2021/10/21 11:12:23;;;;;;;2.50;0.50;;;14.60;77.40;;;;;;5052518;28;20028;-70
2021/10/21 11:14:56;;;;;;;5.00;0.77;;;14.70;77.90;;;;;;5060705;28;20485;-69
2021/10/21 11:17:42;;;;;;;2.33;0.95;;;14.80;75.80;;;;;;5056891;28;20033;-70
2021/10/21 11:20:30;;;;;;;0.52;0.30;;;14.90;74.30;;;;;;5052932;28;20075;-69
2021/10/21 11:23:05;;;;;;;2.25;0.50;;;14.90;73.70;;;;;;5053144;28;20036;-69
2021/10/21 11:25:33;;;;;;;2.13;0.63;;;14.90;74.10;;;;;;5053255;28;20039;-73
2021/10/21 11:28:00;;;;;;;5.50;0.73;;;14.90;73.20;;;;;;5053274;28;20390;-73
2021/10/21 11:30:29;;;;;;;3.25;1.05;;;15.00;72.90;;;;;;5053681;28;20497;-75
2021/10/21 11:33:00;;;;;;;4.65;0.50;;;15.00;72.00;;;;;;5073125;28;20025;-75
2021/10/21 11:35:28;;;;;;;1.65;0.40;;;15.00;70.50;;;;;;5072789;28;20032;-69
2021/10/21 11:38:02;;;;;;;2.05;0.60;;;15.00;71.10;;;;;;5073201;28;20079;-75
2021/10/21 11:40:39;;;;;;;3.30;0.52;;;14.90;71.00;;;;;;5072618;28;20549;-76
2021/10/21 11:43:25;;;;;;;4.93;0.85;;;15.00;71.10;;;;;;5072392;28;20131;-68
2021/10/21 11:45:59;;;;;;;2.80;0.77;;;15.10;70.70;;;;;;5057712;28;20485;-70
2021/10/21 11:48:32;;;;;;;2.33;0.80;;;15.20;70.60;;;;;;5032222;28;20033;-70
2021/10/21 11:50:59;;;;;;;3.00;0.60;;;15.40;69.50;;;;;;5049554;28;20432;-70
2021/10/21 11:53:27;;;;;;;6.95;0.85;;;15.50;69.00;;;;;;5052672;28;20029;-70
2021/10/21 11:55:55;;;;;;;3.38;0.80;;;15.40;67.90;;;;;;5051836;28;20037;-70
2021/10/21 11:58:25;;;;;;;2.33;0.70;;;15.30;68.40;;;;;;5051923;28;20071;-70
2021/10/21 12:00:54;;;;;;;2.67;0.68;;;15.20;68.90;;;;;;5050754;28;20033;-70
2021/10/21 12:03:33;;;;;;;2.15;0.60;;;15.20;68.40;;;;;;5051763;28;20041;-70
2021/10/21 12:05:59;;;;;;;5.78;0.57;;;15.10;68.80;;;;;;5050135;28;20381;-70
2021/10/21 12:08:25;;;;;;;8.80;1.30;;;15.10;69.30;;;;;;5051888;28;20029;-70
2021/10/21 12:11:09;;;;;;;2.83;0.90;;;15.00;69.00;;;;;;5052500;28;20028;-70
2021/10/21 12:13:37;;;;;;;3.42;0.73;;;15.00;69.60;;;;;;5053293;28;20058;-71
2021/10/21 12:16:17;;;;;;;2.67;0.43;;;14.90;68.60;;;;;;5052356;28;20115;-71
2021/10/21 12:18:42;;;;;;;1.27;0.50;;;14.90;68.40;;;;;;5059317;28;20395;-71
2021/10/21 12:21:08;;;;;;;3.67;0.70;;;15.00;67.90;;;;;;5053942;28;20029;-68
2021/10/21 12:23:55;;;;;;;2.92;0.60;;;15.20;67.40;;;;;;5052146;28;20036;-69
2021/10/21 12:26:28;;;;;;;3.22;0.70;;;15.40;67.70;;;;;;5051161;28;20053;-69
2021/10/21 12:28:59;;;;;;;3.10;0.57;;;15.70;67.40;;;;;;5051990;28;20466;-71
2021/10/21 12:31:31;;;;;;;2.17;0.63;;;16.10;66.40;;;;;;5051273;28;20120;-71
2021/10/21 12:34:02;;;;;;;2.80;0.82;;;16.40;66.00;;;;;;5051666;28;20112;-70
2021/10/21 12:36:29;;;;;;;2.53;0.68;;;16.70;65.20;;;;;;5036479;28;20095;-70
2021/10/21 12:39:10;;;;;;;2.15;0.73;;;17.20;65.30;;;;;;5032345;28;20029;-70
2021/10/21 12:42:19;;;;;;;2.17;0.90;;;17.80;62.70;;;;;;5046766;28;20025;-71
2021/10/21 12:44:53;;;;;;;2.38;0.57;;;17.80;61.50;;;;;;5026636;28;20038;-70
2021/10/21 12:47:24;;;;;;;2.40;0.73;;;17.70;61.60;;;;;;5033920;28;20049;-70
2021/10/21 12:50:06;;;;;;;1.65;0.50;;;17.50;61.70;;;;;;5060859;28;20117;-70
2021/10/21 12:52:36;;;;;;;1.13;0.40;;;17.30;61.90;;;;;;5051268;28;20112;-70
2021/10/21 12:55:19;;;;;;;2.90;0.77;;;16.80;62.70;;;;;;5051695;28;20033;-70